Time;durP1;ratioP1;P1;durP2;ratioP2;P2;SDS_P1;SDS_P2;PMS_P1;PMS_P2;Temp;Humidity;BMP_temperature;BMP_pressure;BME280_temperature;BME280_humidity;BME280_pressure;Samples;Min_cycle;Max_cycle;Signal;HPM_P1;HPM_P2
2022/12/21 00:01:51;;;;;;;69.03;4.47;;;6.40;99.90;;;6.86;100.00;97765.25;5086477;28;20559;-80
2022/12/21 00:04:20;;;;;;;33.43;3.50;;;6.40;99.90;;;6.86;100.00;97767.84;5084938;28;20520;-80
2022/12/21 00:06:49;;;;;;;2.30;2.10;;;6.40;99.90;;;6.86;100.00;97770.44;5094544;28;20462;-79
2022/12/21 00:09:19;;;;;;;4.50;2.60;;;6.40;99.90;;;6.88;100.00;97767.66;5087913;28;21048;-80
2022/12/21 00:11:49;;;;;;;2.77;2.20;;;6.40;99.90;;;6.86;100.00;97767.84;5091940;28;20495;-80
2022/12/21 00:14:19;;;;;;;9.57;2.00;;;6.40;99.90;;;6.87;100.00;97774.66;5090102;28;20463;-80
2022/12/21 00:16:49;;;;;;;2.40;2.20;;;6.40;99.90;;;6.86;100.00;97767.03;5093658;28;20528;-80
2022/12/21 00:19:21;;;;;;;2.20;2.00;;;6.40;99.90;;;6.90;100.00;97760.53;5095461;28;21004;-80
2022/12/21 00:21:51;;;;;;;5.50;2.03;;;6.50;99.90;;;6.88;100.00;97757.28;5087440;28;20562;-80
2022/12/21 00:24:22;;;;;;;61.03;3.93;;;6.50;99.90;;;6.90;100.00;97757.94;5092584;28;20450;-80
2022/12/21 00:26:53;;;;;;;13.93;2.87;;;6.50;99.90;;;6.90;100.00;97758.75;5093296;28;20486;-80
2022/12/21 00:29:23;;;;;;;5.27;2.77;;;6.50;99.90;;;6.93;100.00;97765.38;5091032;28;20552;-80
2022/12/21 00:31:53;;;;;;;8.30;2.70;;;6.50;99.90;;;6.93;100.00;97763.59;5089210;28;20459;-80
2022/12/21 00:34:23;;;;;;;67.33;4.20;;;6.50;99.90;;;6.93;100.00;97762.78;5096472;28;20462;-80
2022/12/21 00:36:53;;;;;;;2.80;2.50;;;6.60;99.90;;;6.97;100.00;97761.47;5089902;28;21032;-80
2022/12/21 00:39:23;;;;;;;171.13;7.60;;;6.60;99.90;;;7.00;100.00;97766.31;5092854;28;20552;-80
2022/12/21 00:41:54;;;;;;;41.33;3.77;;;6.60;99.90;;;7.04;100.00;97768.41;5093508;28;20475;-80
2022/12/21 00:44:23;;;;;;;2.33;1.70;;;6.70;99.90;;;7.05;100.00;97758.81;5091676;28;20535;-80
2022/12/21 00:46:52;;;;;;;55.80;3.60;;;6.60;99.90;;;7.06;100.00;97760.44;5089055;28;20460;-80
2022/12/21 00:49:22;;;;;;;59.13;2.63;;;6.60;99.90;;;7.04;100.00;97752.00;5091894;28;20459;-80
2022/12/21 00:51:54;;;;;;;115.93;7.60;;;6.60;99.90;;;7.06;100.00;97757.81;5091051;28;20976;-80
2022/12/21 00:54:23;;;;;;;2.40;2.20;;;6.60;99.90;;;7.12;100.00;97762.34;5092704;28;20824;-80
2022/12/21 00:56:54;;;;;;;75.87;4.73;;;6.70;99.90;;;7.13;100.00;97755.34;5090350;28;20558;-80
2022/12/21 00:59:26;;;;;;;15.27;2.00;;;6.70;99.90;;;7.12;100.00;97757.13;5089833;28;20482;-80
2022/12/21 01:01:57;;;;;;;91.93;4.60;;;6.70;99.90;;;7.17;100.00;97756.63;5091072;28;20487;-79
2022/12/21 01:04:28;;;;;;;16.50;1.83;;;6.80;99.90;;;7.19;100.00;97755.47;5090176;28;20818;-80
2022/12/21 01:06:57;;;;;;;10.03;2.10;;;6.80;99.90;;;7.23;100.00;97758.53;5086839;28;20463;-80
2022/12/21 01:09:28;;;;;;;22.17;2.07;;;6.90;99.90;;;7.25;100.00;97753.97;5089410;28;20511;-80
2022/12/21 01:12:00;;;;;;;6.10;1.80;;;6.90;99.90;;;7.28;100.00;97758.84;5090725;28;20458;-80
2022/12/21 01:14:31;;;;;;;216.10;7.73;;;6.90;99.90;;;7.30;100.00;97757.66;5088531;28;20450;-80
2022/12/21 01:17:00;;;;;;;220.67;8.50;;;6.90;99.90;;;7.30;100.00;97762.88;5088644;28;20530;-80
2022/12/21 01:19:29;;;;;;;4.97;1.73;;;7.00;99.90;;;7.31;100.00;97763.69;5092523;28;21052;-80
2022/12/21 01:22:01;;;;;;;1.70;1.60;;;6.90;99.90;;;7.33;100.00;97762.50;5087402;28;20520;-80
2022/12/21 01:24:31;;;;;;;49.07;4.17;;;7.00;99.90;;;7.35;100.00;97762.34;5084316;28;20958;-80
2022/12/21 01:27:01;;;;;;;11.93;1.80;;;6.90;99.90;;;7.36;100.00;97762.16;5090635;28;20459;-80
2022/12/21 01:29:31;;;;;;;1.90;1.70;;;7.00;99.90;;;7.37;100.00;97768.19;5092739;28;20534;-80
2022/12/21 01:32:02;;;;;;;81.40;5.40;;;7.00;99.90;;;7.37;100.00;97775.97;5088005;28;20520;-80
2022/12/21 01:34:31;;;;;;;1.73;1.63;;;7.00;99.90;;;7.36;100.00;97772.56;5089891;28;20881;-80
2022/12/21 01:37:00;;;;;;;55.83;3.20;;;6.90;99.90;;;7.33;100.00;97769.50;5090328;28;20480;-79
2022/12/21 01:39:30;;;;;;;13.83;2.03;;;6.90;99.90;;;7.31;100.00;97780.09;5093501;28;20924;-80
2022/12/21 01:42:01;;;;;;;1.90;1.67;;;6.90;99.90;;;7.32;100.00;97779.13;5092183;28;20541;-80
2022/12/21 01:45:02;;;;;;;11.23;1.97;;;6.90;99.90;;;7.32;100.00;97775.72;5092060;28;20468;-80
2022/12/21 01:47:42;;;;;;;35.40;1.90;;;6.90;99.90;;;7.30;100.00;97783.66;5092420;28;20988;-80
2022/12/21 01:50:32;;;;;;;6.53;1.60;;;6.80;99.90;;;7.30;100.00;97783.66;5093264;28;20886;-80
2022/12/21 01:53:11;;;;;;;49.17;2.80;;;6.80;99.90;;;7.28;100.00;97788.25;5094504;28;20490;-80
2022/12/21 01:55:46;;;;;;;1.50;1.40;;;6.80;99.90;;;7.29;100.00;97795.03;5093283;28;20829;-80
2022/12/21 01:58:19;;;;;;;2.17;1.40;;;6.90;99.90;;;7.32;100.00;97789.53;5089994;28;21421;-80
2022/12/21 02:00:49;;;;;;;5.83;1.70;;;6.90;99.90;;;7.32;100.00;97781.72;5091612;28;20554;-80
2022/12/21 02:03:22;;;;;;;2.60;1.37;;;6.90;99.90;;;7.29;100.00;97782.03;5094734;28;20458;-80
2022/12/21 02:05:59;;;;;;;8.27;1.77;;;6.80;99.90;;;7.29;100.00;97773.47;5092926;28;20453;-80
2022/12/21 02:08:29;;;;;;;298.40;10.70;;;6.80;99.90;;;7.26;100.00;97772.00;5089495;28;20447;-80
2022/12/21 02:11:01;;;;;;;87.20;3.77;;;6.80;99.90;;;7.28;100.00;97769.22;5093160;28;20537;-80
2022/12/21 02:13:32;;;;;;;277.87;14.73;;;6.80;99.90;;;7.28;100.00;97772.66;5090219;28;20817;-79
2022/12/21 02:16:20;;;;;;;1.70;1.60;;;6.90;99.90;;;7.29;100.00;97765.66;5093349;28;20541;-80
2022/12/21 02:19:34;;;;;;;2.27;1.57;;;6.80;99.90;;;7.28;100.00;97772.66;5090499;28;20514;-80
2022/12/21 02:22:11;;;;;;;1.77;1.63;;;6.80;99.90;;;7.26;100.00;97766.78;5089724;28;20460;-80
2022/12/21 02:25:32;;;;;;;4.63;1.47;;;6.80;99.90;;;7.29;100.00;97765.66;5090626;28;21010;-80
2022/12/21 02:28:54;;;;;;;1.30;1.20;;;6.80;99.90;;;7.27;100.00;97765.81;5085209;28;20472;-80
2022/12/21 02:31:41;;;;;;;104.77;4.53;;;6.80;99.90;;;7.27;100.00;97754.59;5087134;28;20988;-80
2022/12/21 02:34:24;;;;;;;2.00;1.30;;;6.80;99.90;;;7.25;100.00;97759.19;5093154;28;20531;-80
2022/12/21 02:37:05;;;;;;;24.77;2.60;;;6.80;99.90;;;7.25;100.00;97757.38;5092423;28;20463;-80
2022/12/21 02:39:50;;;;;;;2.33;1.40;;;6.80;99.90;;;7.25;100.00;97749.59;5088095;28;20577;-79
2022/12/21 02:45:29;;;;;;;25.47;2.10;;;6.80;99.90;;;7.24;100.00;97753.16;5094438;28;20524;-80
2022/12/21 02:48:12;;;;;;;12.97;1.73;;;6.80;99.90;;;7.24;100.00;97747.97;5092104;28;20542;-81
2022/12/21 02:50:50;;;;;;;22.33;2.13;;;6.80;99.90;;;7.24;100.00;97741.94;5093117;28;20843;-80
2022/12/21 02:53:28;;;;;;;29.27;2.53;;;6.70;99.90;;;7.20;100.00;97746.69;5092077;28;20467;-81
2022/12/21 02:55:58;;;;;;;3.10;1.60;;;6.70;99.90;;;7.22;100.00;97749.91;5093701;28;20532;-80
2022/12/21 02:58:27;;;;;;;79.60;4.10;;;6.70;99.90;;;7.25;100.00;97753.97;5092668;28;20532;-81
2022/12/21 03:01:18;;;;;;;6.50;1.80;;;6.80;99.90;;;7.25;100.00;97757.38;5090089;28;20566;-80
2022/12/21 03:04:22;;;;;;;1.90;1.80;;;6.80;99.90;;;7.25;100.00;97749.59;5093436;28;20455;-80
2022/12/21 03:07:27;;;;;;;5.77;1.50;;;6.80;99.90;;;7.25;100.00;97744.38;5075006;28;20553;-80
2022/12/21 03:10:11;;;;;;;2.30;1.33;;;6.80;99.90;;;7.21;100.00;97743.13;5094256;28;20934;-80
2022/12/21 03:12:59;;;;;;;3.73;1.50;;;6.70;99.90;;;7.25;100.00;97744.38;5092952;28;20878;-80
2022/12/21 03:15:41;;;;;;;1.60;1.50;;;6.80;99.90;;;7.27;100.00;97744.19;5085386;28;20823;-81
2022/12/21 03:18:25;;;;;;;123.97;5.63;;;6.80;99.90;;;7.29;100.00;97742.25;5092276;28;20455;-80
2022/12/21 03:21:07;;;;;;;1.47;1.37;;;6.80;99.90;;;7.26;100.00;97739.97;5088380;28;20562;-81
2022/12/21 03:23:42;;;;;;;35.50;2.63;;;6.80;99.90;;;7.24;100.00;97741.94;5085733;28;20554;-80
2022/12/21 03:26:19;;;;;;;1.93;1.70;;;6.80;99.90;;;7.24;100.00;97741.94;5083429;28;21054;-80
2022/12/21 03:28:53;;;;;;;21.63;2.10;;;6.80;99.90;;;7.24;100.00;97741.94;5092882;28;20455;-80
2022/12/21 03:31:30;;;;;;;1.60;1.47;;;6.80;99.90;;;7.21;100.00;97743.13;5089197;28;20474;-80
2022/12/21 03:34:08;;;;;;;9.70;2.00;;;6.70;99.90;;;7.23;100.00;97751.53;5091456;28;20495;-80
2022/12/21 03:36:47;;;;;;;13.43;1.67;;;6.70;99.90;;;7.23;100.00;97751.53;5088908;28;20455;-80
2022/12/21 03:39:23;;;;;;;5.27;1.97;;;6.80;99.90;;;7.26;100.00;97746.00;5091885;28;21409;-80
2022/12/21 03:41:59;;;;;;;1.60;1.50;;;6.80;99.90;;;7.27;100.00;97750.22;5086520;28;20873;-79
2022/12/21 03:44:39;;;;;;;16.57;1.83;;;6.80;99.90;;;7.26;100.00;97738.19;5096829;28;20459;-80
2022/12/21 03:47:17;;;;;;;1.33;1.23;;;6.80;99.90;;;7.26;100.00;97738.19;5095743;28;20907;-80
2022/12/21 03:49:54;;;;;;;48.13;3.17;;;6.70;99.90;;;7.26;100.00;97739.97;5095687;28;20481;-80
2022/12/21 03:52:36;;;;;;;1.57;1.47;;;6.70;99.90;;;7.25;100.00;97733.19;5097371;28;20864;-80
2022/12/21 03:55:13;;;;;;;27.77;2.27;;;6.70;99.90;;;7.28;100.00;97744.03;5096527;28;20526;-80
2022/12/21 03:57:45;;;;;;;10.77;1.90;;;6.80;99.90;;;7.28;100.00;97743.22;5091374;28;20459;-80
2022/12/21 04:00:16;;;;;;;3.93;1.60;;;6.80;99.90;;;7.29;100.00;97735.22;5094603;28;20490;-80
2022/12/21 04:02:57;;;;;;;5.77;1.80;;;6.80;99.90;;;7.28;100.00;97733.63;5093364;28;20467;-80
2022/12/21 04:05:31;;;;;;;9.10;2.03;;;6.80;99.90;;;7.29;100.00;97732.63;5093729;28;20992;-80
2022/12/21 04:08:03;;;;;;;124.20;8.27;;;6.80;99.90;;;7.28;100.00;97732.81;5091457;28;20846;-79
2022/12/21 04:10:32;;;;;;;4.77;1.60;;;6.80;99.90;;;7.28;100.00;97731.03;5089235;28;20497;-80
2022/12/21 04:13:02;;;;;;;12.03;1.80;;;6.80;99.90;;;7.30;100.00;97736.84;5091574;28;20554;-79
2022/12/21 04:19:57;;;;;;;10.37;2.17;;;6.80;99.90;;;7.30;100.00;97736.84;5086922;28;20463;-80
2022/12/21 04:21:05;;;;;;;4.93;1.50;;;6.80;99.90;;;7.29;100.00;97735.22;5092123;28;20491;-80
2022/12/21 04:29:07;;;;;;;42.20;2.60;;;6.90;99.90;;;7.29;100.00;97730.03;5092056;28;20928;-80
2022/12/21 04:31:36;;;;;;;4.57;2.40;;;6.90;99.90;;;7.34;100.00;97722.53;5089414;28;20466;-80
2022/12/21 04:34:07;;;;;;;23.70;2.60;;;6.90;99.90;;;7.36;100.00;97730.97;5091380;28;20507;-80
2022/12/21 04:39:25;;;;;;;2.53;1.83;;;7.00;99.90;;;7.42;100.00;97738.09;5092372;28;20485;-80
2022/12/21 04:41:56;;;;;;;18.00;2.27;;;7.00;99.90;;;7.44;100.00;97738.72;5091651;28;20495;-80
2022/12/21 04:44:25;;;;;;;5.50;1.90;;;7.10;99.90;;;7.46;100.00;97731.53;5091816;28;20459;-80
2022/12/21 04:46:56;;;;;;;42.70;3.13;;;7.10;99.90;;;7.50;100.00;97742.38;5095700;28;20455;-80
2022/12/21 04:49:26;;;;;;;70.23;3.90;;;7.10;99.90;;;7.49;100.00;97728.59;5096436;28;20463;-80
2022/12/21 04:51:59;;;;;;;57.60;3.90;;;7.10;99.90;;;7.51;100.00;97739.63;5094039;28;20508;-80
2022/12/21 04:54:30;;;;;;;4.70;1.90;;;7.10;99.90;;;7.50;100.00;97732.78;5097052;28;20895;-80
2022/12/21 04:56:59;;;;;;;158.17;7.73;;;7.10;99.90;;;7.51;100.00;97734.41;5095591;28;20494;-80
2022/12/21 04:59:29;;;;;;;131.10;6.53;;;7.10;99.90;;;7.50;100.00;97738.00;5091863;28;20508;-80
2022/12/21 05:01:58;;;;;;;23.83;2.20;;;7.10;99.90;;;7.54;100.00;97728.88;5095258;28;20574;-79
2022/12/21 05:04:28;;;;;;;10.30;2.20;;;7.10;99.90;;;7.56;100.00;97720.91;5096419;28;20453;-80
2022/12/21 05:06:58;;;;;;;2.97;1.80;;;7.10;99.90;;;7.57;100.00;97714.69;5093788;28;20458;-80
2022/12/21 05:09:29;;;;;;;28.63;2.43;;;7.10;99.90;;;7.55;100.00;97717.47;5093867;28;20542;-80
2022/12/21 05:11:56;;;;;;;8.77;1.70;;;7.10;99.90;;;7.56;100.00;97720.91;5094151;28;20471;-81
2022/12/21 05:14:28;;;;;;;3.20;2.10;;;7.00;99.90;;;7.57;100.00;97712.91;5090592;28;20465;-80
2022/12/21 05:16:58;;;;;;;7.53;2.20;;;7.10;99.90;;;7.56;100.00;97723.50;5090646;28;20510;-80
2022/12/21 05:19:29;;;;;;;1.70;1.60;;;7.00;99.90;;;7.56;100.00;97708.69;5090991;28;21040;-80
2022/12/21 05:21:58;;;;;;;7.87;1.33;;;7.10;99.90;;;7.54;100.00;97718.47;5090140;28;21036;-80
2022/12/21 05:24:30;;;;;;;15.23;1.90;;;7.10;99.90;;;7.57;100.00;97719.88;5094297;28;20659;-80
2022/12/21 05:27:00;;;;;;;344.77;11.03;;;7.10;99.90;;;7.57;100.00;97712.91;5088179;28;20567;-80
2022/12/21 05:29:30;;;;;;;4.37;1.50;;;7.10;99.90;;;7.58;100.00;97708.50;5091667;28;20540;-80
2022/12/21 05:31:59;;;;;;;1.67;1.40;;;7.10;99.90;;;7.59;100.00;97717.94;5087601;28;20462;-80
2022/12/21 05:34:29;;;;;;;2.53;1.83;;;7.10;99.90;;;7.59;100.00;97721.34;5092786;28;20455;-80
2022/12/21 05:36:58;;;;;;;76.30;4.80;;;7.20;99.90;;;7.60;100.00;97722.16;5087517;28;20463;-79
2022/12/21 05:39:31;;;;;;;2.60;1.60;;;7.20;99.90;;;7.62;100.00;97727.19;5092771;28;20467;-80
2022/12/21 05:42:01;;;;;;;2.17;1.40;;;7.10;99.90;;;7.62;100.00;97719.38;5086574;28;20922;-80
2022/12/21 05:44:31;;;;;;;140.67;7.53;;;7.20;99.90;;;7.62;100.00;97717.59;5091592;28;20467;-80
2022/12/21 05:47:00;;;;;;;238.00;10.40;;;7.20;99.90;;;7.63;100.00;97721.81;5085759;28;20518;-80
2022/12/21 05:49:30;;;;;;;7.80;2.17;;;7.20;99.90;;;7.64;100.00;97727.78;5083346;28;20542;-80
2022/12/21 05:52:01;;;;;;;94.63;5.63;;;7.20;99.90;;;7.65;100.00;97724.22;5088696;28;20863;-80
2022/12/21 05:54:33;;;;;;;1.90;1.80;;;7.20;99.90;;;7.70;100.00;97734.91;5092932;28;20483;-80
2022/12/21 05:57:03;;;;;;;3.03;1.73;;;7.30;99.90;;;7.79;100.00;97726.03;5094127;28;20455;-80
2022/12/21 05:59:38;;;;;;;1.77;1.67;;;7.50;99.90;;;7.82;100.00;97726.50;5090137;28;20461;-80
2022/12/21 06:02:10;;;;;;;3.50;1.90;;;7.50;99.90;;;7.88;100.00;97725.00;5090261;28;20500;-80
2022/12/21 06:04:39;;;;;;;265.93;11.87;;;7.50;99.90;;;7.90;100.00;97725.63;5091262;28;20554;-79
2022/12/21 06:07:10;;;;;;;24.50;3.33;;;7.50;99.90;;;7.90;100.00;97707.41;5089465;28;20467;-80
2022/12/21 06:09:42;;;;;;;2.53;1.97;;;7.40;99.90;;;7.90;100.00;97718.63;5090973;28;20495;-80
2022/12/21 06:12:12;;;;;;;2.87;1.83;;;7.50;99.90;;;7.90;100.00;97725.63;5088502;28;20467;-80
2022/12/21 06:14:42;;;;;;;3.60;2.10;;;7.50;99.90;;;7.91;100.00;97722.03;5090608;28;20477;-80
2022/12/21 06:17:11;;;;;;;7.93;2.40;;;7.50;99.90;;;7.94;100.00;97719.06;5090559;28;20479;-80
2022/12/21 06:19:40;;;;;;;83.27;5.27;;;7.50;99.90;;;7.95;100.00;97721.47;5089972;28;20467;-79
2022/12/21 06:22:11;;;;;;;109.83;6.67;;;7.50;99.90;;;7.93;100.00;97720.06;5088675;28;20491;-80
2022/12/21 06:24:41;;;;;;;36.10;3.37;;;7.50;99.90;;;7.96;100.00;97727.50;5088129;28;20579;-80
2022/12/21 06:27:10;;;;;;;77.00;6.83;;;7.50;99.90;;;8.01;100.00;97725.19;5086921;28;20455;-81
2022/12/21 06:29:41;;;;;;;7.60;5.27;;;7.70;99.90;;;7.96;100.00;97727.50;5084998;28;20504;-80
2022/12/21 06:32:12;;;;;;;30.37;5.97;;;7.60;99.90;;;7.95;100.00;97726.69;5082801;28;20808;-80
2022/12/21 06:34:42;;;;;;;206.07;9.27;;;7.60;99.90;;;7.98;100.00;97728.16;5084760;28;20459;-80
2022/12/21 06:37:13;;;;;;;14.87;4.13;;;7.60;99.90;;;7.97;100.00;97719.53;5093891;28;20458;-80
2022/12/21 06:39:44;;;;;;;3.30;2.83;;;7.50;99.90;;;7.97;100.00;97729.13;5086117;28;20467;-80
2022/12/21 06:42:15;;;;;;;3.67;2.53;;;7.50;99.90;;;7.93;100.00;97727.84;5086007;28;20922;-80
2022/12/21 06:44:46;;;;;;;136.20;40.20;;;7.50;99.90;;;7.94;100.00;97724.28;5088972;28;20454;-84
2022/12/21 06:47:14;;;;;;;14.73;4.40;;;7.50;99.90;;;7.91;100.00;97729.84;5091105;28;20874;-79
2022/12/21 06:49:45;;;;;;;5.47;3.70;;;7.50;99.90;;;7.88;100.00;97728.38;5088740;28;20467;-79
2022/12/21 06:52:21;;;;;;;3.27;2.97;;;7.40;99.90;;;7.88;100.00;97730.19;5091629;28;20463;-80
2022/12/21 06:54:51;;;;;;;65.33;4.60;;;7.40;99.90;;;7.90;100.00;97731.63;5091701;28;20482;-80
2022/12/21 06:57:21;;;;;;;15.73;4.20;;;7.50;99.90;;;7.90;100.00;97736.84;5089000;28;20464;-80
2022/12/21 06:59:51;;;;;;;6.20;3.57;;;7.40;99.90;;;7.89;100.00;97734.41;5091859;28;20454;-80
2022/12/21 07:02:21;;;;;;;172.47;9.13;;;7.40;99.90;;;7.90;100.00;97736.03;5092540;28;20505;-80
2022/12/21 07:04:53;;;;;;;3.47;3.00;;;7.40;99.90;;;7.90;100.00;97738.63;5092698;28;20461;-80
2022/12/21 07:07:24;;;;;;;5.63;3.00;;;7.40;99.90;;;7.91;100.00;97735.06;5090014;28;20499;-80
2022/12/21 07:09:55;;;;;;;9.97;3.00;;;7.40;99.90;;;7.90;100.00;97739.44;5093942;28;20486;-80
2022/12/21 07:12:25;;;;;;;23.10;3.17;;;7.50;99.90;;;7.91;100.00;97742.88;5090089;28;20510;-80
2022/12/21 07:14:54;;;;;;;6.53;2.67;;;7.40;99.90;;;7.90;100.00;97742.03;5092429;28;20500;-80
2022/12/21 07:17:24;;;;;;;5.43;2.27;;;7.40;99.90;;;7.88;100.00;97746.59;5093364;28;20489;-79
2022/12/21 07:19:54;;;;;;;3.90;2.60;;;7.40;99.90;;;7.87;100.00;97746.81;5096566;28;20516;-80
2022/12/21 07:22:24;;;;;;;6.73;2.50;;;7.40;99.90;;;7.86;100.00;97750.38;5096808;28;20837;-80
2022/12/21 07:24:54;;;;;;;3.47;2.30;;;7.40;99.90;;;7.87;100.00;97754.59;5092160;28;20490;-80
2022/12/21 07:27:23;;;;;;;21.07;3.30;;;7.40;99.90;;;7.87;100.00;97762.41;5092018;28;20467;-80
2022/12/21 07:29:52;;;;;;;15.40;3.60;;;7.40;99.90;;;7.90;100.00;97759.47;5092909;28;20488;-79
2022/12/21 07:32:22;;;;;;;4.90;3.23;;;7.50;99.90;;;7.90;100.00;97756.84;5097554;28;20464;-80
2022/12/21 07:34:51;;;;;;;11.27;3.50;;;7.50;99.90;;;7.89;100.00;97756.03;5093484;28;20470;-80
2022/12/21 07:37:22;;;;;;;81.93;34.70;;;7.40;99.90;;;7.90;100.00;97759.47;5090204;28;21297;-83
2022/12/21 07:39:54;;;;;;;67.97;25.43;;;7.40;99.90;;;7.91;100.00;97759.25;5091877;28;20549;-80
2022/12/21 07:42:25;;;;;;;4.03;3.40;;;7.40;99.90;;;7.90;100.00;97757.66;5093552;28;20496;-80
2022/12/21 07:44:55;;;;;;;15.10;3.13;;;7.40;99.90;;;7.90;100.00;97760.28;5094521;28;20454;-79
2022/12/21 07:47:26;;;;;;;4.83;3.00;;;7.40;99.90;;;7.88;100.00;97761.44;5093391;28;21208;-80
2022/12/21 07:49:57;;;;;;;4.73;3.33;;;7.50;99.90;;;7.93;100.00;97754.72;5089991;28;20487;-80
2022/12/21 07:52:26;;;;;;;4.67;3.20;;;7.50;99.90;;;7.93;100.00;97743.47;5090187;28;20907;-79
2022/12/21 07:54:58;;;;;;;225.07;10.40;;;7.50;99.90;;;7.92;100.00;97752.25;5089890;28;20489;-80
2022/12/21 07:57:27;;;;;;;12.63;3.33;;;7.50;99.90;;;7.93;100.00;97744.28;5091032;28;21462;-80
2022/12/21 07:59:58;;;;;;;4.30;3.57;;;7.50;99.90;;;7.89;100.00;97745.63;5089354;28;20451;-80
2022/12/21 08:02:31;;;;;;;66.07;4.17;;;7.40;99.90;;;7.91;100.00;97742.88;5094100;28;20529;-88
2022/12/21 08:05:02;;;;;;;114.10;39.73;;;7.50;99.90;;;7.91;100.00;97748.06;5090963;28;20468;-79
2022/12/21 08:07:33;;;;;;;24.53;13.07;;;7.40;99.90;;;7.92;100.00;97760.88;5090223;28;20460;-79
2022/12/21 08:10:09;;;;;;;3.07;2.73;;;7.40;99.90;;;7.92;100.00;97760.06;5089619;28;20678;-79
2022/12/21 08:12:40;;;;;;;11.03;2.50;;;7.50;99.90;;;7.89;100.00;97765.63;5091348;28;20453;-79
2022/12/21 08:15:10;;;;;;;12.17;3.60;;;7.40;99.90;;;7.91;100.00;97769.69;5089917;28;20500;-79
2022/12/21 08:17:41;;;;;;;4.13;3.20;;;7.40;99.90;;;7.93;100.00;97766.91;5089684;28;20559;-80
2022/12/21 08:20:13;;;;;;;44.87;4.90;;;7.50;99.90;;;7.94;100.00;97776.34;5091839;28;21015;-80
2022/12/21 08:22:44;;;;;;;3.27;2.97;;;7.50;99.90;;;7.97;100.00;97768.19;5089704;28;20479;-80
2022/12/21 08:25:17;;;;;;;21.73;6.27;;;7.50;99.90;;;7.99;100.00;97774.00;5090394;28;21817;-80
2022/12/21 08:27:46;;;;;;;5.47;3.40;;;7.50;99.90;;;8.00;100.00;97780.84;5094427;28;20574;-79
2022/12/21 08:30:17;;;;;;;6.73;3.00;;;7.60;99.90;;;8.01;100.00;97772.06;5092638;28;20474;-80
2022/12/21 08:32:54;;;;;;;3.00;2.70;;;7.60;99.90;;;8.03;100.00;97777.88;5092079;28;20545;-79
2022/12/21 08:35:24;;;;;;;4.60;3.77;;;7.60;99.90;;;8.07;100.00;97781.75;5091323;28;20463;-83
2022/12/21 08:37:55;;;;;;;44.13;18.27;;;7.60;99.90;;;8.08;100.00;97783.38;5089267;28;20454;-79
2022/12/21 08:40:29;;;;;;;67.47;5.80;;;7.60;99.90;;;8.09;100.00;97784.97;5095686;28;20462;-79
2022/12/21 08:43:00;;;;;;;4.80;3.50;;;7.70;99.90;;;8.15;100.00;97778.25;5092611;28;20481;-79
2022/12/21 08:45:29;;;;;;;7.83;6.20;;;7.80;99.90;;;8.22;100.00;97779.97;5092471;28;20942;-79
2022/12/21 08:47:59;;;;;;;8.73;5.37;;;7.90;99.90;;;8.26;100.00;97790.84;5093079;28;21441;-79
2022/12/21 08:50:30;;;;;;;19.07;5.20;;;7.80;99.90;;;8.28;100.00;97797.53;5094498;28;20831;-79
2022/12/21 08:52:58;;;;;;;11.50;6.83;;;7.80;99.90;;;8.29;100.00;97791.34;5093845;28;20964;-79
2022/12/21 08:55:30;;;;;;;3.73;2.43;;;7.90;99.90;;;8.44;100.00;97799.94;5091165;28;20510;-79
2022/12/21 08:58:01;;;;;;;2.10;1.90;;;8.20;99.90;;;8.50;100.00;97794.00;5094811;28;20461;-79
2022/12/21 09:00:31;;;;;;;4.30;2.90;;;8.20;99.90;;;8.55;100.00;97796.09;5096186;28;20447;-78
2022/12/21 09:03:06;;;;;;;3.00;1.97;;;8.20;99.90;;;8.61;100.00;97789.34;5092597;28;20525;-79
2022/12/21 09:05:35;;;;;;;2.93;2.17;;;8.20;99.90;;;8.65;100.00;97794.00;5091681;28;20482;-79
2022/12/21 09:08:06;;;;;;;1.37;1.27;;;8.30;99.90;;;8.73;100.00;97793.09;5092723;28;20467;-79
2022/12/21 09:10:36;;;;;;;1.70;1.60;;;8.50;99.90;;;8.79;100.00;97793.19;5090124;28;20465;-79
2022/12/21 09:13:04;;;;;;;2.80;1.80;;;8.50;99.90;;;8.84;100.00;97800.47;5089542;28;20491;-79
2022/12/21 09:15:34;;;;;;;2.27;1.97;;;8.50;99.90;;;8.89;100.00;97805.94;5096084;28;20519;-79
2022/12/21 09:18:04;;;;;;;2.17;2.00;;;8.60;99.90;;;8.92;100.00;97797.78;5093714;28;20524;-79
2022/12/21 09:20:34;;;;;;;5.73;2.83;;;8.60;99.90;;;8.94;100.00;97801.00;5088870;28;20494;-79
2022/12/21 09:23:04;;;;;;;2.70;1.93;;;8.60;99.90;;;8.96;100.00;97810.25;5092319;28;21039;-78
2022/12/21 09:25:36;;;;;;;2.33;1.90;;;8.70;99.90;;;9.00;100.00;97810.69;5091643;28;21202;-79
2022/12/21 09:28:06;;;;;;;2.10;1.90;;;8.70;99.90;;;9.01;100.00;97812.31;5088341;28;20464;-79
2022/12/21 09:30:36;;;;;;;3.57;2.90;;;8.70;99.90;;;9.02;100.00;97812.13;5087658;28;21025;-79
2022/12/21 09:33:06;;;;;;;3.83;3.47;;;8.70;99.90;;;9.05;100.00;97813.56;5088281;28;20472;-79
2022/12/21 09:35:38;;;;;;;5.37;4.37;;;8.70;99.90;;;9.07;100.00;97817.59;5086935;28;20509;-79
2022/12/21 09:38:08;;;;;;;5.43;3.10;;;8.70;99.90;;;9.06;100.00;97821.19;5085209;28;20574;-79
2022/12/21 09:40:41;;;;;;;2.60;2.10;;;8.70;99.90;;;9.06;100.00;97828.19;5088039;28;21174;-79
2022/12/21 09:43:29;;;;;;;2.20;2.00;;;8.70;99.90;;;9.09;100.00;97831.25;5086671;28;20501;-79
2022/12/21 09:46:05;;;;;;;57.87;27.07;;;8.80;99.90;;;9.14;100.00;97835.13;5083562;28;20457;-79
2022/12/21 09:48:41;;;;;;;5.50;3.40;;;8.80;99.90;;;9.17;100.00;97832.16;5088952;28;20460;-79
2022/12/21 09:51:21;;;;;;;2.80;1.70;;;8.90;99.90;;;9.22;100.00;97835.84;5087052;28;20888;-79
2022/12/21 09:53:58;;;;;;;1.90;1.73;;;9.00;99.90;;;9.26;100.00;97846.72;5086113;28;20582;-78
2022/12/21 09:56:30;;;;;;;2.10;1.90;;;9.00;99.90;;;9.26;100.00;97846.72;5086404;28;20487;-79
2022/12/21 09:59:04;;;;;;;2.50;1.97;;;9.00;99.90;;;9.25;100.00;97848.50;5085387;28;20464;-78
2022/12/21 10:01:50;;;;;;;3.90;2.00;;;8.90;99.90;;;9.25;100.00;97851.13;5090083;28;20554;-79
2022/12/21 10:04:45;;;;;;;2.50;1.97;;;8.90;99.90;;;9.22;100.00;97856.72;5087055;28;20589;-79
2022/12/21 10:08:39;;;;;;;3.70;1.90;;;8.80;99.90;;;9.25;100.00;97858.13;5074479;28;20482;-79
2022/12/21 10:11:29;;;;;;;2.00;1.73;;;8.80;99.90;;;9.22;100.00;97851.50;5038003;28;20552;-79
2022/12/21 10:14:12;;;;;;;3.07;2.50;;;8.80;99.90;;;9.20;100.00;97853.47;5087446;28;20459;-80
2022/12/21 10:16:52;;;;;;;2.03;1.83;;;8.80;99.90;;;9.28;100.00;97858.56;5089794;28;20556;-79
2022/12/21 10:20:02;;;;;;;1.90;1.80;;;8.90;99.90;;;9.34;100.00;97850.00;5089616;28;20833;-79
2022/12/21 10:22:37;;;;;;;119.63;59.60;;;9.00;99.90;;;9.39;100.00;97854.69;5087729;28;20574;-79
2022/12/21 10:25:18;;;;;;;14.00;7.60;;;9.00;99.90;;;9.43;100.00;97854.16;5088476;28;20487;-79
2022/12/21 10:27:55;;;;;;;3.50;3.07;;;9.10;99.90;;;9.44;100.00;97850.53;5090254;28;20536;-79
2022/12/21 10:30:27;;;;;;;5.57;3.33;;;9.10;99.90;;;9.47;100.00;97851.97;5085831;28;20553;-79
2022/12/21 10:33:00;;;;;;;7.03;2.80;;;9.10;99.90;;;9.51;100.00;97861.84;5084485;28;20462;-79
2022/12/21 10:35:37;;;;;;;4.87;2.60;;;9.20;99.90;;;9.57;100.00;97868.13;5087882;28;20456;-79
2022/12/21 10:38:15;;;;;;;3.27;2.90;;;9.20;99.90;;;9.64;100.00;97860.38;5092844;28;20458;-83
2022/12/21 10:40:52;;;;;;;4.33;3.10;;;9.40;99.90;;;9.67;100.00;97862.59;5089018;28;20526;-79
2022/12/21 10:43:23;;;;;;;5.53;1.60;;;9.40;99.90;;;9.65;100.00;97862.78;5089297;28;20515;-79
2022/12/21 10:45:55;;;;;;;2.47;1.53;;;9.30;99.90;;;9.71;100.00;97858.63;5087420;28;20487;-79
2022/12/21 10:48:25;;;;;;;174.47;85.43;;;9.40;99.90;;;9.72;100.00;97855.03;5088618;28;20465;-80
2022/12/21 10:51:00;;;;;;;14.63;8.03;;;9.40;99.90;;;9.72;100.00;97847.22;5092373;28;20547;-79
2022/12/21 10:53:30;;;;;;;2.33;1.90;;;9.40;99.90;;;9.74;100.00;97848.63;5093793;28;20458;-79
2022/12/21 10:56:01;;;;;;;2.57;1.60;;;9.40;99.90;;;9.76;100.00;97837.97;5094388;28;20467;-79
2022/12/21 10:58:35;;;;;;;4.17;1.73;;;9.40;99.90;;;9.75;100.00;97846.84;5096919;28;20486;-80
2022/12/21 11:01:18;;;;;;;3.03;1.73;;;9.40;99.90;;;9.75;100.00;97841.63;5097315;28;20517;-79
2022/12/21 11:04:07;;;;;;;1.47;1.30;;;9.40;99.90;;;9.76;100.00;97843.22;5096873;28;20535;-79
2022/12/21 11:06:36;;;;;;;4.17;1.30;;;9.50;99.90;;;9.73;100.00;97833.94;5094340;28;20575;-80